createdAt,value
2019-01-14T00:01:34.501Z,31.60
2019-01-14T00:04:08.651Z,31.60
2019-01-14T00:06:43.236Z,31.60
2019-01-14T00:09:23.226Z,31.60
2019-01-14T00:11:53.565Z,31.60
2019-01-14T00:14:27.901Z,31.60
2019-01-14T00:17:02.079Z,31.60
2019-01-14T00:19:36.156Z,31.60
2019-01-14T00:22:10.786Z,31.60
2019-01-14T00:24:45.429Z,31.60
2019-01-14T00:27:20.254Z,31.60
2019-01-14T00:29:54.546Z,31.60
2019-01-14T00:32:30.097Z,31.60
2019-01-14T00:35:04.458Z,31.60
2019-01-14T00:37:38.612Z,31.60
2019-01-14T00:40:15.655Z,31.60
2019-01-14T00:42:49.973Z,31.60
2019-01-14T00:45:24.605Z,31.60
2019-01-14T00:47:58.903Z,31.60
2019-01-14T00:50:33.205Z,31.60
2019-01-14T00:53:07.620Z,31.60
2019-01-14T00:55:42.211Z,31.60
2019-01-14T00:58:16.439Z,31.60
2019-01-14T01:00:51.304Z,31.60
2019-01-14T01:03:26.174Z,31.60
2019-01-14T01:06:00.727Z,31.60
2019-01-14T01:08:35.598Z,31.60
2019-01-14T01:11:10.164Z,31.70
2019-01-14T01:13:44.853Z,31.70
2019-01-14T01:16:18.970Z,31.70
2019-01-14T01:18:53.976Z,31.70
2019-01-14T01:21:28.196Z,31.70
2019-01-14T01:24:02.461Z,31.70
2019-01-14T01:26:37.168Z,31.70
2019-01-14T01:29:11.214Z,31.70
2019-01-14T01:31:45.876Z,31.80
2019-01-14T01:34:20.865Z,31.80
2019-01-14T01:36:55.218Z,31.80
2019-01-14T01:39:29.262Z,31.80
2019-01-14T01:42:03.623Z,31.80
2019-01-14T01:44:38.281Z,31.80
2019-01-14T01:47:12.646Z,31.90
2019-01-14T01:49:47.415Z,31.90
2019-01-14T01:52:21.643Z,31.90
2019-01-14T01:54:56.530Z,31.90
2019-01-14T01:57:31.598Z,32.00
2019-01-14T02:00:06.007Z,32.00
2019-01-14T02:02:40.776Z,32.00
2019-01-14T02:05:15.410Z,32.00
2019-01-14T02:07:49.902Z,32.00
2019-01-14T02:10:25.820Z,32.10
2019-01-14T02:13:00.474Z,32.10
2019-01-14T02:15:35.077Z,32.10
2019-01-14T02:18:09.472Z,32.10
2019-01-14T02:20:43.871Z,32.10
2019-01-14T02:23:18.261Z,32.10
2019-01-14T02:25:52.723Z,32.10
2019-01-14T02:28:27.396Z,32.20
2019-01-14T02:31:01.621Z,32.10
2019-01-14T02:33:36.743Z,32.10
2019-01-14T02:36:11.354Z,32.20
2019-01-14T02:38:46.203Z,32.10
2019-01-14T02:41:20.742Z,32.20
2019-01-14T02:43:55.238Z,32.20
2019-01-14T02:46:29.691Z,32.20
2019-01-14T02:49:04.614Z,32.20
2019-01-14T02:51:38.997Z,32.20
2019-01-14T02:54:13.354Z,32.30
2019-01-14T02:56:47.708Z,32.30
2019-01-14T02:59:22.223Z,32.30
2019-01-14T03:01:56.857Z,32.30
2019-01-14T03:04:31.174Z,32.30
2019-01-14T03:07:05.162Z,32.30
2019-01-14T03:09:39.578Z,32.30
2019-01-14T03:12:14.114Z,32.30
2019-01-14T03:14:48.592Z,32.30
2019-01-14T03:17:23.213Z,32.40
2019-01-14T03:19:57.776Z,32.40
2019-01-14T03:22:32.536Z,32.40
2019-01-14T03:25:07.099Z,32.40
2019-01-14T03:27:41.742Z,32.40
2019-01-14T03:30:18.308Z,32.50
2019-01-14T03:32:53.400Z,32.50
2019-01-14T03:35:27.532Z,32.50
2019-01-14T03:38:02.761Z,32.50
2019-01-14T03:40:36.907Z,32.60
2019-01-14T03:43:11.937Z,32.60
2019-01-14T03:45:46.431Z,32.60
2019-01-14T03:48:21.041Z,32.60
2019-01-14T03:50:55.560Z,32.60
2019-01-14T03:53:29.652Z,32.70
2019-01-14T03:56:04.643Z,32.70
2019-01-14T03:58:39.409Z,32.70
2019-01-14T04:01:14.403Z,32.80
2019-01-14T04:03:49.054Z,32.80
2019-01-14T04:06:23.525Z,32.80
2019-01-14T04:08:57.976Z,32.80
2019-01-14T04:11:32.879Z,32.80
2019-01-14T04:14:07.230Z,32.90
2019-01-14T04:16:41.966Z,32.90
2019-01-14T04:19:16.602Z,33.00
2019-01-14T04:21:51.355Z,33.00
2019-01-14T04:24:25.860Z,33.00
2019-01-14T04:27:00.548Z,33.00
2019-01-14T04:29:34.924Z,33.00
2019-01-14T04:32:09.519Z,33.10
2019-01-14T04:34:44.257Z,33.10
2019-01-14T04:37:21.605Z,33.10
2019-01-14T04:39:55.261Z,33.10
2019-01-14T04:42:29.685Z,33.20
2019-01-14T04:45:04.511Z,33.20
2019-01-14T04:47:39.215Z,33.20
2019-01-14T04:50:16.778Z,33.20
2019-01-14T04:52:50.595Z,33.30
2019-01-14T04:55:25.379Z,33.30
2019-01-14T04:58:00.107Z,33.30
2019-01-14T05:00:34.952Z,33.30
2019-01-14T05:03:09.504Z,33.40
2019-01-14T05:05:44.183Z,33.40
2019-01-14T05:08:18.172Z,33.40
2019-01-14T05:10:52.473Z,33.40
2019-01-14T05:13:27.143Z,33.40
2019-01-14T05:16:02.021Z,33.40
2019-01-14T05:18:36.335Z,33.40
2019-01-14T05:21:11.714Z,33.40
2019-01-14T05:23:46.264Z,33.40
2019-01-14T05:26:21.034Z,33.50
2019-01-14T05:28:55.697Z,33.40
2019-01-14T05:31:30.210Z,33.40
2019-01-14T05:34:04.680Z,33.40
2019-01-14T05:36:39.516Z,33.40
2019-01-14T05:39:14.539Z,33.50
2019-01-14T05:41:49.322Z,33.50
2019-01-14T05:44:24.320Z,33.50
2019-01-14T05:46:59.108Z,33.50
2019-01-14T05:49:33.618Z,33.50
2019-01-14T05:52:08.362Z,33.50
2019-01-14T05:54:43.319Z,33.50
2019-01-14T05:57:18.419Z,33.50
2019-01-14T05:59:53.201Z,33.50
2019-01-14T06:02:28.881Z,33.60
2019-01-14T06:05:03.634Z,33.60
2019-01-14T06:07:44.692Z,33.60
2019-01-14T06:10:13.924Z,33.60
2019-01-14T06:12:48.788Z,33.60
2019-01-14T06:15:23.037Z,33.60
2019-01-14T06:17:57.440Z,33.60
2019-01-14T06:20:33.173Z,33.70
2019-01-14T06:23:07.714Z,33.70
2019-01-14T06:25:42.583Z,33.70
2019-01-14T06:28:16.874Z,33.70
2019-01-14T06:30:52.097Z,33.70
2019-01-14T06:33:26.295Z,33.80
2019-01-14T06:36:01.131Z,33.80
2019-01-14T06:38:35.824Z,33.80
2019-01-14T06:41:10.423Z,33.80
2019-01-14T06:43:45.938Z,33.80
2019-01-14T06:46:20.630Z,33.80
2019-01-14T06:48:55.332Z,33.80
2019-01-14T06:51:30.160Z,33.90
2019-01-14T06:54:04.525Z,33.90
2019-01-14T06:56:39.141Z,33.90
2019-01-14T06:59:13.883Z,33.90
2019-01-14T07:01:48.339Z,33.90
2019-01-14T07:04:24.231Z,33.90
2019-01-14T07:06:58.275Z,34.00
2019-01-14T07:09:35.174Z,34.00
2019-01-14T07:12:09.901Z,34.00
2019-01-14T07:14:43.933Z,34.00
2019-01-14T07:17:19.294Z,34.00
2019-01-14T07:19:53.686Z,34.00
2019-01-14T07:22:28.138Z,34.00
2019-01-14T07:25:02.595Z,34.00
2019-01-14T07:27:36.851Z,34.00
2019-01-14T07:30:13.834Z,34.00
2019-01-14T07:32:48.053Z,34.00
2019-01-14T07:35:22.724Z,34.00
2019-01-14T07:37:57.120Z,34.00
2019-01-14T07:40:34.079Z,34.00
2019-01-14T07:43:08.675Z,34.00
2019-01-14T07:45:43.900Z,34.00
2019-01-14T07:48:17.847Z,34.00
2019-01-14T07:50:52.585Z,34.00
2019-01-14T07:53:26.654Z,34.00
2019-01-14T07:56:01.852Z,34.00
2019-01-14T07:58:36.255Z,34.00
2019-01-14T08:01:10.704Z,34.00
2019-01-14T08:03:45.262Z,34.00
2019-01-14T08:06:19.964Z,34.00
2019-01-14T08:08:54.279Z,34.00
2019-01-14T08:11:28.710Z,34.10
2019-01-14T08:14:03.363Z,34.10
2019-01-14T08:16:38.222Z,34.10
2019-01-14T08:19:12.524Z,34.10
2019-01-14T08:21:46.783Z,34.10
2019-01-14T08:24:21.424Z,34.10
2019-01-14T08:26:55.958Z,34.10
2019-01-14T08:29:30.684Z,34.10
2019-01-14T08:32:05.295Z,34.10
2019-01-14T08:34:40.196Z,34.10
2019-01-14T08:37:14.520Z,34.10
2019-01-14T08:39:49.583Z,34.20
2019-01-14T08:42:24.108Z,34.20
2019-01-14T08:44:58.869Z,34.20
2019-01-14T08:47:35.097Z,34.20
2019-01-14T08:50:10.678Z,34.20
2019-01-14T08:52:45.465Z,34.20
2019-01-14T08:55:20.104Z,34.20
2019-01-14T08:57:54.930Z,34.20
2019-01-14T09:00:29.283Z,34.20
2019-01-14T09:03:03.732Z,34.20
2019-01-14T09:05:38.126Z,34.30
2019-01-14T09:08:12.460Z,34.20
2019-01-14T09:10:47.172Z,34.20
2019-01-14T09:13:21.674Z,34.20
2019-01-14T09:15:55.984Z,34.20
2019-01-14T09:18:30.564Z,34.20
2019-01-14T09:21:05.097Z,34.30
2019-01-14T09:23:40.300Z,34.20
2019-01-14T09:26:14.765Z,34.20
2019-01-14T09:28:49.410Z,34.20
2019-01-14T09:31:25.211Z,34.30
2019-01-14T09:34:05.671Z,34.20
2019-01-14T09:36:40.390Z,34.20
2019-01-14T09:39:15.543Z,34.20
2019-01-14T09:41:49.813Z,34.20
2019-01-14T09:44:24.386Z,34.20
2019-01-14T09:46:59.093Z,34.30
2019-01-14T09:49:33.974Z,34.20
2019-01-14T09:52:08.771Z,34.20
2019-01-14T09:54:43.360Z,34.20
2019-01-14T09:57:18.052Z,34.20
2019-01-14T09:59:53.781Z,34.20
2019-01-14T10:02:28.400Z,34.20
2019-01-14T10:05:03.573Z,34.20
2019-01-14T10:07:38.266Z,34.20
2019-01-14T10:10:15.204Z,34.20
2019-01-14T10:12:49.669Z,34.20
2019-01-14T10:15:30.447Z,34.20
2019-01-14T10:18:07.973Z,34.20
2019-01-14T10:20:42.587Z,34.20
2019-01-14T10:23:16.833Z,34.20
2019-01-14T10:25:51.004Z,34.10
2019-01-14T10:28:25.480Z,34.20
2019-01-14T10:31:00.231Z,34.20
2019-01-14T10:33:34.702Z,34.10
2019-01-14T10:36:09.107Z,34.10
2019-01-14T10:38:50.165Z,34.10
2019-01-14T10:41:19.566Z,34.10
2019-01-14T10:43:54.204Z,34.10
2019-01-14T10:46:28.804Z,34.10
2019-01-14T10:49:06.757Z,34.10
2019-01-14T10:51:39.748Z,34.10
2019-01-14T10:54:14.307Z,34.00
2019-01-14T10:56:49.577Z,34.00
2019-01-14T10:59:23.885Z,34.00
2019-01-14T11:01:58.524Z,34.00
2019-01-14T11:04:33.268Z,34.00
2019-01-14T11:07:07.495Z,34.00
2019-01-14T11:09:44.622Z,34.00
2019-01-14T11:12:17.558Z,34.00
2019-01-14T11:14:52.136Z,34.00
2019-01-14T11:17:26.404Z,34.00
2019-01-14T11:20:01.113Z,34.00
2019-01-14T11:22:38.292Z,33.90
2019-01-14T11:25:12.429Z,33.90
2019-01-14T11:27:47.335Z,33.90
2019-01-14T11:30:24.327Z,33.90
2019-01-14T11:32:58.778Z,33.90
2019-01-14T11:35:33.648Z,33.90
2019-01-14T11:38:09.236Z,33.90
2019-01-14T11:40:45.286Z,33.80
2019-01-14T11:43:20.326Z,33.80
2019-01-14T11:45:54.856Z,33.80
2019-01-14T11:48:29.418Z,33.80
2019-01-14T11:51:03.496Z,33.80
2019-01-14T11:53:38.689Z,33.80
2019-01-14T11:56:12.927Z,33.80
2019-01-14T11:58:47.716Z,33.80
2019-01-14T12:01:22.090Z,33.80
2019-01-14T12:03:56.471Z,33.80
2019-01-14T12:06:30.958Z,33.80
2019-01-14T12:09:12.203Z,33.80
2019-01-14T12:11:43.130Z,33.80
2019-01-14T12:14:17.751Z,33.80
2019-01-14T12:16:52.126Z,33.80
2019-01-14T12:19:26.575Z,33.80
2019-01-14T12:22:00.755Z,33.80
2019-01-14T12:24:35.217Z,33.80
2019-01-14T12:27:09.649Z,33.80
2019-01-14T12:29:44.287Z,33.80
2019-01-14T12:32:18.744Z,33.80
2019-01-14T12:34:53.165Z,33.80
2019-01-14T12:37:27.456Z,33.80
2019-01-14T12:40:01.933Z,33.70
2019-01-14T12:42:36.378Z,33.80
2019-01-14T12:45:11.914Z,33.70
2019-01-14T12:47:45.783Z,33.70
2019-01-14T12:50:20.982Z,33.70
2019-01-14T12:52:54.703Z,33.70
2019-01-14T12:55:30.213Z,33.70
2019-01-14T12:58:04.805Z,33.70
2019-01-14T13:00:39.356Z,33.70
2019-01-14T13:03:14.266Z,33.70
2019-01-14T13:05:48.835Z,33.70
2019-01-14T13:08:22.966Z,33.70
2019-01-14T13:10:57.353Z,33.70
2019-01-14T13:13:31.622Z,33.70
2019-01-14T13:16:06.176Z,33.70
2019-01-14T13:18:40.348Z,33.70
2019-01-14T13:21:15.192Z,33.70
2019-01-14T13:23:49.736Z,33.60
2019-01-14T13:26:24.496Z,33.60
2019-01-14T13:28:58.902Z,33.60
2019-01-14T13:31:33.763Z,33.60
2019-01-14T13:34:08.202Z,33.60
2019-01-14T13:36:42.891Z,33.60
2019-01-14T13:39:17.199Z,33.50
2019-01-14T13:41:52.755Z,33.50
2019-01-14T13:44:27.401Z,33.50
2019-01-14T13:47:02.711Z,33.50
2019-01-14T13:49:37.137Z,33.50
2019-01-14T13:52:11.901Z,33.50
2019-01-14T13:54:46.368Z,33.50
2019-01-14T13:57:21.656Z,33.40
2019-01-14T13:59:56.123Z,33.40
2019-01-14T14:02:30.985Z,33.40
2019-01-14T14:05:10.013Z,33.40
2019-01-14T14:07:44.907Z,33.40
2019-01-14T14:10:27.250Z,33.30
2019-01-14T14:13:02.020Z,33.30
2019-01-14T14:15:36.393Z,33.30
2019-01-14T14:18:11.268Z,33.30
2019-01-14T14:20:45.711Z,33.30
2019-01-14T14:23:20.830Z,33.20
2019-01-14T14:25:55.466Z,33.30
2019-01-14T14:28:30.763Z,33.20
2019-01-14T14:31:04.917Z,33.20
2019-01-14T14:33:39.637Z,33.20
2019-01-14T14:36:14.264Z,33.20
2019-01-14T14:38:48.437Z,33.20
2019-01-14T14:41:23.056Z,33.20
2019-01-14T14:43:57.815Z,33.20
2019-01-14T14:46:32.369Z,33.20
2019-01-14T14:49:06.726Z,33.20
2019-01-14T14:51:41.341Z,33.10
2019-01-14T14:54:15.898Z,33.10
2019-01-14T14:56:50.606Z,33.10
2019-01-14T14:59:24.869Z,33.10
2019-01-14T15:02:00.277Z,33.10
2019-01-14T15:04:35.653Z,33.10
2019-01-14T15:07:10.116Z,33.10
2019-01-14T15:09:44.323Z,33.10
2019-01-14T15:12:18.885Z,33.10
2019-01-14T15:14:53.414Z,33.00
2019-01-14T15:17:28.090Z,33.00
2019-01-14T15:20:02.887Z,33.00
2019-01-14T15:22:37.676Z,33.00
2019-01-14T15:25:12.203Z,33.00
2019-01-14T15:27:46.411Z,33.00
2019-01-14T15:30:33.873Z,33.00
2019-01-14T15:33:08.648Z,33.00
2019-01-14T15:35:42.888Z,33.00
2019-01-14T15:38:17.861Z,33.00
2019-01-14T15:40:52.397Z,33.00
2019-01-14T15:43:26.829Z,33.00
2019-01-14T15:46:01.218Z,33.00
2019-01-14T15:48:36.096Z,33.00
2019-01-14T15:51:10.832Z,33.00
2019-01-14T15:53:45.687Z,32.90
2019-01-14T15:56:20.553Z,32.90
2019-01-14T15:58:54.695Z,32.90
2019-01-14T16:01:29.467Z,32.90
2019-01-14T16:04:04.323Z,32.90
2019-01-14T16:06:38.788Z,32.90
2019-01-14T16:09:14.238Z,32.90
2019-01-14T16:11:48.474Z,32.80
2019-01-14T16:14:22.923Z,32.90
2019-01-14T16:16:57.576Z,32.90
2019-01-14T16:19:32.152Z,32.90
2019-01-14T16:22:06.663Z,32.80
2019-01-14T16:24:40.811Z,32.90
2019-01-14T16:27:15.937Z,32.80
2019-01-14T16:29:50.055Z,32.80
2019-01-14T16:32:24.587Z,32.80
2019-01-14T16:34:59.510Z,32.80
2019-01-14T16:37:33.932Z,32.80
2019-01-14T16:40:10.259Z,32.80
2019-01-14T16:42:44.731Z,32.80
2019-01-14T16:45:22.321Z,32.80
2019-01-14T16:47:57.240Z,32.80
2019-01-14T16:50:32.045Z,32.80
2019-01-14T16:53:06.720Z,32.80
2019-01-14T16:55:53.064Z,32.80
2019-01-14T16:58:27.508Z,32.70
2019-01-14T17:01:02.040Z,32.70
2019-01-14T17:03:36.378Z,32.70
2019-01-14T17:06:11.105Z,32.70
2019-01-14T17:08:46.227Z,32.70
2019-01-14T17:11:20.848Z,32.70
2019-01-14T17:13:55.435Z,32.70
2019-01-14T17:16:30.394Z,32.70
2019-01-14T17:19:04.833Z,32.60
2019-01-14T17:21:39.267Z,32.60
2019-01-14T17:24:13.944Z,32.70
2019-01-14T17:26:48.483Z,32.60
2019-01-14T17:29:22.925Z,32.60
2019-01-14T17:31:57.627Z,32.60
2019-01-14T17:34:31.987Z,32.60
2019-01-14T17:37:07.247Z,32.60
2019-01-14T17:39:41.781Z,32.60
2019-01-14T17:42:17.094Z,32.60
2019-01-14T17:44:51.688Z,32.60
2019-01-14T17:47:26.315Z,32.60
2019-01-14T17:50:00.877Z,32.60
2019-01-14T17:52:34.895Z,32.60
2019-01-14T17:55:09.634Z,32.60
2019-01-14T17:57:44.334Z,32.50
2019-01-14T18:00:24.280Z,32.50
2019-01-14T18:02:58.390Z,32.50
2019-01-14T18:05:33.574Z,32.60
2019-01-14T18:08:08.011Z,32.50
2019-01-14T18:10:43.266Z,32.50
2019-01-14T18:13:18.266Z,32.50
2019-01-14T18:15:53.569Z,32.50
2019-01-14T18:18:27.963Z,32.50
2019-01-14T18:21:05.511Z,32.50
2019-01-14T18:23:38.973Z,32.50
2019-01-14T18:26:13.529Z,32.50
2019-01-14T18:28:48.414Z,32.50
2019-01-14T18:31:22.993Z,32.50
2019-01-14T18:33:57.470Z,32.40
2019-01-14T18:36:31.846Z,32.50
2019-01-14T18:39:06.684Z,32.40
2019-01-14T18:41:41.380Z,32.50
2019-01-14T18:44:16.278Z,32.50
2019-01-14T18:46:50.741Z,32.40
2019-01-14T18:49:25.479Z,32.40
2019-01-14T18:51:59.641Z,32.50
2019-01-14T18:54:36.740Z,32.50
2019-01-14T18:57:11.305Z,32.50
2019-01-14T18:59:46.005Z,32.40
2019-01-14T19:02:20.889Z,32.40
2019-01-14T19:04:55.077Z,32.40
2019-01-14T19:07:29.601Z,32.40
2019-01-14T19:10:04.283Z,32.40
2019-01-14T19:12:39.521Z,32.40
2019-01-14T19:15:17.030Z,32.40
2019-01-14T19:17:51.925Z,32.40
2019-01-14T19:20:30.913Z,32.40
2019-01-14T19:23:06.269Z,32.40
2019-01-14T19:25:41.343Z,32.40
2019-01-14T19:28:15.799Z,32.40
2019-01-14T19:30:50.735Z,32.40
2019-01-14T19:33:25.293Z,32.40
2019-01-14T19:35:59.856Z,32.30
2019-01-14T19:38:34.413Z,32.40
2019-01-14T19:41:09.060Z,32.30
2019-01-14T19:43:43.644Z,32.30
2019-01-14T19:46:18.590Z,32.30
2019-01-14T19:48:53.232Z,32.30
2019-01-14T19:51:28.366Z,32.30
2019-01-14T19:54:02.595Z,32.30
2019-01-14T19:56:37.306Z,32.30
2019-01-14T19:59:12.096Z,32.30
2019-01-14T20:01:46.335Z,32.30
2019-01-14T20:04:21.201Z,32.30
2019-01-14T20:06:55.286Z,32.20
2019-01-14T20:09:29.858Z,32.30
2019-01-14T20:12:04.312Z,32.30
2019-01-14T20:14:39.326Z,32.30
2019-01-14T20:17:13.634Z,32.20
2019-01-14T20:19:48.348Z,32.20
2019-01-14T20:22:25.286Z,32.20
2019-01-14T20:25:00.233Z,32.20
2019-01-14T20:27:34.783Z,32.20
2019-01-14T20:30:10.840Z,32.20
2019-01-14T20:32:45.345Z,32.20
2019-01-14T20:35:19.996Z,32.20
2019-01-14T20:37:54.623Z,32.10
2019-01-14T20:40:28.881Z,32.10
2019-01-14T20:43:04.082Z,32.10
2019-01-14T20:45:38.698Z,32.10
2019-01-14T20:48:13.378Z,32.10
2019-01-14T20:50:47.850Z,32.10
2019-01-14T20:53:22.410Z,32.10
2019-01-14T20:55:56.439Z,32.10
2019-01-14T20:58:31.011Z,32.10
2019-01-14T21:01:05.873Z,32.10
2019-01-14T21:03:40.461Z,32.10
2019-01-14T21:06:15.330Z,32.10
2019-01-14T21:08:51.006Z,32.10
2019-01-14T21:11:25.397Z,32.10
2019-01-14T21:14:00.117Z,32.10
2019-01-14T21:16:35.307Z,32.10
2019-01-14T21:19:09.430Z,32.10
2019-01-14T21:21:44.145Z,32.10
2019-01-14T21:24:18.572Z,32.10
2019-01-14T21:26:53.055Z,32.10
2019-01-14T21:29:27.348Z,32.10
2019-01-14T21:32:01.670Z,32.10
2019-01-14T21:34:36.083Z,32.00
2019-01-14T21:37:11.052Z,32.00
2019-01-14T21:39:45.440Z,32.00
2019-01-14T21:42:19.970Z,32.00
2019-01-14T21:44:54.970Z,32.00
2019-01-14T21:47:32.704Z,32.00
2019-01-14T21:50:05.307Z,32.00
2019-01-14T21:52:39.744Z,32.00
2019-01-14T21:55:16.050Z,32.00
2019-01-14T21:57:50.710Z,32.00
2019-01-14T22:00:26.454Z,32.00
2019-01-14T22:03:01.579Z,32.00
2019-01-14T22:05:36.018Z,32.00
2019-01-14T22:08:10.891Z,32.00
2019-01-14T22:10:45.355Z,32.00
2019-01-14T22:13:20.204Z,32.00
2019-01-14T22:15:54.541Z,31.90
2019-01-14T22:18:29.876Z,31.90
2019-01-14T22:21:04.682Z,31.90
2019-01-14T22:23:39.480Z,31.90
2019-01-14T22:26:13.730Z,31.90
2019-01-14T22:28:48.658Z,31.90
2019-01-14T22:31:23.457Z,31.90
2019-01-14T22:33:57.615Z,31.90
2019-01-14T22:36:31.752Z,31.90
2019-01-14T22:39:08.161Z,31.80
2019-01-14T22:41:45.878Z,31.90
2019-01-14T22:44:18.714Z,31.80
2019-01-14T22:46:53.254Z,31.80
2019-01-14T22:49:27.830Z,31.80
2019-01-14T22:52:02.657Z,31.80
2019-01-14T22:54:41.970Z,31.80
2019-01-14T22:57:16.865Z,31.80
2019-01-14T22:59:51.237Z,31.80
2019-01-14T23:02:25.875Z,31.80
2019-01-14T23:05:00.523Z,31.80
2019-01-14T23:07:35.520Z,31.80
2019-01-14T23:10:09.946Z,31.80
2019-01-14T23:12:44.720Z,31.80
2019-01-14T23:15:19.121Z,31.80
2019-01-14T23:17:53.740Z,31.80
2019-01-14T23:20:29.270Z,31.80
2019-01-14T23:23:04.250Z,31.80
2019-01-14T23:25:38.363Z,31.70
2019-01-14T23:28:13.210Z,31.80
2019-01-14T23:30:47.975Z,31.70
2019-01-14T23:33:22.210Z,31.70
2019-01-14T23:35:57.062Z,31.70
2019-01-14T23:38:31.382Z,31.70
2019-01-14T23:41:05.710Z,31.70
2019-01-14T23:43:40.329Z,31.70
2019-01-14T23:46:14.730Z,31.70
2019-01-14T23:48:49.517Z,31.70
2019-01-14T23:51:23.792Z,31.70
2019-01-14T23:53:59.688Z,31.70
2019-01-14T23:56:33.829Z,31.70
2019-01-14T23:59:10.814Z,31.70
